Huvudsida
METAR-TAF:

METAR-TAF

Flygplatser :

Aden, Jemen

latitud: 12-40N, longitud: 045-02E, höjd: 3 m

Aktuellt väderrapport

Denna rapport gjordes för 1 timme och 51 minuter sedan, klockan 16:00 UTC
Vind 5 kt från väst/sydväst
Temperatur 34°C
Fuktighet 63%
Tryck 1004 hPa
Sikt: 6000 m
Få moln på en höjd av 3500 ft, Cumulonimbus.

METAR: OYAA 141600Z 25005KT 6000 FEW035CB 34/26 Q1004 NOSIG

Tid: 20:51 (17:51 UTC)


TAF: saknas

Aktuella väderrapporter och prognoser från 4000 flygplatser (METAR- och TAF-rapporter).

De tillgängliga stationerna syns som gula och röda prickar på kartan.

För musen över prickarna för att se namnen på stationerna.

Klicka sedan för att få väderrapporter och prognoser.

För att ändra kartan: Klicka på de gröna knapparna med ett svart kors på för att zooma in; den gröna knappen med ett streck på för att zooma ut; eller på de gröna pilarna för angränsande kartor.


METAR-TAF: